Time;durP1;ratioP1;P1;durP2;ratioP2;P2;SDS_P1;SDS_P2;PMS_P1;PMS_P2;Temp;Humidity;BMP_temperature;BMP_pressure;BME280_temperature;BME280_humidity;BME280_pressure;Samples;Min_cycle;Max_cycle;Signal;HPM_P1;HPM_P2
2022/03/29 00:01:22;;;;;;;11.07;5.97;;;;;;;;;;5089657;28;20065;-87
2022/03/29 00:03:48;;;;;;;11.23;7.45;;;;;;;;;;5088418;28;20032;-85
2022/03/29 00:06:14;;;;;;;10.55;6.00;;;;;;;;;;5077275;28;20084;-85
2022/03/29 00:08:39;;;;;;;8.93;6.50;;;;;;;;;;5081140;28;20059;-84
2022/03/29 00:11:05;;;;;;;11.57;6.97;;;;;;;;;;5079771;28;20429;-83
2022/03/29 00:13:30;;;;;;;10.13;6.47;;;;;;;;;;5083928;28;20027;-84
2022/03/29 00:15:56;;;;;;;10.20;7.00;;;;;;;;;;5083811;28;20055;-84
2022/03/29 00:18:21;;;;;;;14.18;7.13;;;;;;;;;;5087700;28;20392;-84
2022/03/29 00:20:47;;;;;;;9.63;6.88;;;;;;;;;;5073308;28;20111;-84
2022/03/29 00:23:12;;;;;;;16.17;9.20;;;;;;;;;;5079558;28;20026;-83
2022/03/29 00:25:38;;;;;;;13.60;7.97;;;;;;;;;;5076506;28;20020;-83
2022/03/29 00:28:04;;;;;;;19.77;8.40;;;;;;;;;;5080469;28;20019;-84
2022/03/29 00:30:30;;;;;;;11.50;6.82;;;;;;;;;;5085324;28;20530;-84
2022/03/29 00:32:56;;;;;;;10.07;7.32;;;;;;;;;;5080625;28;20060;-84
2022/03/29 00:35:24;;;;;;;9.45;7.10;;;;;;;;;;5085748;28;20063;-84
2022/03/29 00:37:51;;;;;;;11.48;7.40;;;;;;;;;;5077268;28;20480;-83
2022/03/29 00:40:19;;;;;;;11.25;7.50;;;;;;;;;;5084745;28;20119;-82
2022/03/29 00:42:44;;;;;;;11.77;6.88;;;;;;;;;;5079921;28;20471;-84
2022/03/29 00:45:10;;;;;;;14.75;6.95;;;;;;;;;;5082033;28;20024;-83
2022/03/29 00:47:36;;;;;;;12.10;7.22;;;;;;;;;;5078461;28;20395;-84
2022/03/29 00:50:01;;;;;;;10.32;6.35;;;;;;;;;;5080285;28;20067;-85
2022/03/29 00:52:28;;;;;;;12.23;6.72;;;;;;;;;;5081864;28;20073;-85
2022/03/29 00:54:54;;;;;;;14.27;7.20;;;;;;;;;;5085555;28;20025;-86
2022/03/29 00:57:19;;;;;;;14.70;7.80;;;;;;;;;;5083012;28;20035;-84
2022/03/29 00:59:47;;;;;;;14.68;8.10;;;;;;;;;;5077940;28;20029;-85
2022/03/29 01:02:13;;;;;;;14.18;7.40;;;;;;;;;;5082141;28;20384;-85
2022/03/29 01:04:39;;;;;;;10.45;7.18;;;;;;;;;;5082556;28;20035;-85
2022/03/29 01:07:06;;;;;;;8.93;6.75;;;;;;;;;;5080395;28;20035;-86
2022/03/29 01:09:33;;;;;;;11.30;6.75;;;;;;;;;;5075009;28;20024;-85
2022/03/29 01:11:59;;;;;;;16.70;7.40;;;;;;;;;;5087685;28;20479;-85
2022/03/29 01:14:26;;;;;;;7.57;6.03;;;;;;;;;;5081765;28;20082;-84
2022/03/29 01:19:37;;;;;;;9.52;6.68;;;;;;;;;;5082299;28;20026;-86
2022/03/29 01:22:07;;;;;;;16.05;7.47;;;;;;;;;;5085317;28;20024;-85
2022/03/29 01:24:34;;;;;;;11.05;7.13;;;;;;;;;;5082509;28;20029;-85
2022/03/29 01:27:01;;;;;;;11.80;6.63;;;;;;;;;;5081869;28;20039;-84
2022/03/29 01:29:32;;;;;;;11.88;7.57;;;;;;;;;;5077188;28;20027;-83
2022/03/29 01:32:01;;;;;;;14.23;7.32;;;;;;;;;;5074987;28;20845;-83
2022/03/29 01:34:27;;;;;;;13.13;7.00;;;;;;;;;;5085383;28;20024;-83
2022/03/29 01:36:53;;;;;;;10.73;7.20;;;;;;;;;;5077109;28;20073;-83
2022/03/29 01:39:18;;;;;;;12.98;9.18;;;;;;;;;;5082710;28;20081;-84
2022/03/29 01:41:43;;;;;;;13.05;8.13;;;;;;;;;;5076756;28;20045;-84
2022/03/29 01:44:10;;;;;;;14.70;7.50;;;;;;;;;;5082394;28;20024;-84
2022/03/29 01:46:37;;;;;;;13.43;8.50;;;;;;;;;;5080005;28;20028;-84
2022/03/29 01:49:04;;;;;;;15.07;8.23;;;;;;;;;;5081192;28;20036;-84
2022/03/29 01:51:29;;;;;;;23.85;8.55;;;;;;;;;;5073279;28;20035;-84
2022/03/29 01:53:56;;;;;;;14.05;6.93;;;;;;;;;;5084088;28;20024;-84
2022/03/29 01:56:26;;;;;;;14.60;7.43;;;;;;;;;;5082447;28;20036;-83
2022/03/29 01:58:52;;;;;;;13.52;8.23;;;;;;;;;;5078087;28;20041;-83
2022/03/29 02:01:17;;;;;;;12.38;8.07;;;;;;;;;;5075889;28;20036;-83
2022/03/29 02:03:43;;;;;;;13.32;7.57;;;;;;;;;;5081404;28;20052;-84
2022/03/29 02:06:08;;;;;;;12.23;7.95;;;;;;;;;;5087098;28;20024;-83
2022/03/29 02:08:34;;;;;;;12.35;8.05;;;;;;;;;;5088699;28;20023;-83
2022/03/29 02:11:00;;;;;;;13.93;7.72;;;;;;;;;;5073954;28;20503;-83
2022/03/29 02:13:26;;;;;;;12.05;6.85;;;;;;;;;;5088544;28;20024;-83
2022/03/29 02:15:51;;;;;;;12.13;7.35;;;;;;;;;;5084473;28;20039;-83
2022/03/29 02:18:17;;;;;;;11.10;7.75;;;;;;;;;;5089795;28;20080;-84
2022/03/29 02:20:42;;;;;;;10.23;7.53;;;;;;;;;;5079581;28;20376;-83
2022/03/29 02:23:12;;;;;;;14.15;7.30;;;;;;;;;;5080466;28;20091;-85
2022/03/29 02:25:38;;;;;;;15.23;7.93;;;;;;;;;;5081663;28;20365;-84
2022/03/29 02:28:04;;;;;;;11.45;7.55;;;;;;;;;;5084138;28;20051;-85
2022/03/29 02:30:31;;;;;;;16.90;7.53;;;;;;;;;;5081005;28;20430;-85
2022/03/29 02:32:58;;;;;;;12.43;8.20;;;;;;;;;;5080252;28;20089;-86
2022/03/29 02:35:23;;;;;;;15.52;7.38;;;;;;;;;;5080911;28;20473;-85
2022/03/29 02:37:49;;;;;;;11.00;7.38;;;;;;;;;;5081121;28;20055;-86
2022/03/29 02:40:14;;;;;;;11.43;7.88;;;;;;;;;;5079554;28;20052;-85
2022/03/29 02:42:48;;;;;;;12.23;7.07;;;;;;;;;;5080325;28;20020;-86
2022/03/29 02:45:15;;;;;;;10.52;7.22;;;;;;;;;;5075968;28;20028;-86
2022/03/29 02:47:44;;;;;;;11.80;7.47;;;;;;;;;;5078201;28;20031;-86
2022/03/29 02:50:10;;;;;;;11.00;7.55;;;;;;;;;;5078371;28;20028;-85
2022/03/29 02:52:53;;;;;;;12.07;7.28;;;;;;;;;;5081033;28;20048;-85
2022/03/29 02:55:21;;;;;;;13.15;7.00;;;;;;;;;;5083315;28;20379;-86
2022/03/29 02:57:47;;;;;;;13.90;6.85;;;;;;;;;;5080385;28;20464;-85
2022/03/29 03:00:15;;;;;;;14.82;7.45;;;;;;;;;;5086260;28;20126;-85
2022/03/29 03:02:45;;;;;;;9.77;6.35;;;;;;;;;;5081246;28;20027;-84
2022/03/29 03:05:11;;;;;;;9.38;6.72;;;;;;;;;;5089597;28;20024;-86
2022/03/29 03:07:38;;;;;;;11.05;7.40;;;;;;;;;;5084084;28;20020;-85
2022/03/29 03:10:04;;;;;;;14.23;7.75;;;;;;;;;;5083958;28;20055;-84
2022/03/29 03:12:38;;;;;;;9.63;6.95;;;;;;;;;;5079839;28;20082;-83
2022/03/29 03:15:05;;;;;;;12.27;6.78;;;;;;;;;;5114972;27;20031;-85
2022/03/29 03:17:31;;;;;;;10.32;6.70;;;;;;;;;;5083019;28;20052;-85
2022/03/29 03:19:56;;;;;;;12.18;6.57;;;;;;;;;;5082897;28;20056;-85
2022/03/29 03:22:22;;;;;;;11.75;8.25;;;;;;;;;;5089731;28;20024;-85
2022/03/29 03:24:48;;;;;;;12.00;7.38;;;;;;;;;;5086380;28;20857;-86
2022/03/29 03:27:16;;;;;;;12.95;8.18;;;;;;;;;;5081599;28;20024;-85
2022/03/29 03:29:42;;;;;;;13.13;8.18;;;;;;;;;;5117153;27;20445;-86
2022/03/29 03:32:08;;;;;;;15.20;7.20;;;;;;;;;;5081227;28;20032;-87
2022/03/29 03:34:34;;;;;;;11.02;7.60;;;;;;;;;;5079714;28;20024;-86
2022/03/29 03:37:02;;;;;;;13.52;7.78;;;;;;;;;;5085016;28;20456;-86
2022/03/29 03:39:34;;;;;;;14.32;7.28;;;;;;;;;;5076613;28;20023;-87
2022/03/29 03:42:01;;;;;;;9.32;7.15;;;;;;;;;;5080583;28;20051;-88
2022/03/29 03:44:27;;;;;;;11.98;7.55;;;;;;;;;;5087580;28;20016;-87
2022/03/29 03:46:53;;;;;;;12.90;7.32;;;;;;;;;;5085658;28;20028;-86
2022/03/29 03:49:19;;;;;;;9.27;7.20;;;;;;;;;;5089625;28;20048;-85
2022/03/29 03:51:44;;;;;;;13.43;8.30;;;;;;;;;;5083369;28;20035;-86
2022/03/29 03:54:10;;;;;;;11.20;8.43;;;;;;;;;;5078258;28;20028;-86
2022/03/29 03:56:35;;;;;;;13.75;7.88;;;;;;;;;;5086450;28;20031;-87
2022/03/29 03:59:00;;;;;;;11.60;7.55;;;;;;;;;;5083017;28;20028;-85
2022/03/29 04:01:27;;;;;;;11.20;7.43;;;;;;;;;;5079981;28;20492;-85
2022/03/29 04:03:52;;;;;;;13.10;7.88;;;;;;;;;;5086531;28;20028;-86
2022/03/29 04:06:17;;;;;;;12.52;7.18;;;;;;;;;;5076612;28;20066;-86
2022/03/29 04:08:43;;;;;;;10.90;7.25;;;;;;;;;;5081367;28;20062;-87
2022/03/29 04:11:08;;;;;;;14.07;7.43;;;;;;;;;;5084336;28;20036;-87
2022/03/29 04:13:34;;;;;;;15.00;7.70;;;;;;;;;;5081993;28;20057;-85
2022/03/29 04:16:01;;;;;;;16.02;8.57;;;;;;;;;;5084938;28;20070;-84
2022/03/29 04:18:27;;;;;;;12.60;7.05;;;;;;;;;;5077400;28;20063;-86
2022/03/29 04:20:53;;;;;;;12.95;7.72;;;;;;;;;;5086083;28;20063;-85
2022/03/29 04:23:19;;;;;;;12.40;7.50;;;;;;;;;;5085969;28;20107;-85
2022/03/29 04:25:45;;;;;;;14.98;8.43;;;;;;;;;;5076665;28;20024;-85
2022/03/29 04:28:10;;;;;;;13.07;8.65;;;;;;;;;;5082257;28;20490;-84
2022/03/29 04:30:36;;;;;;;11.90;8.25;;;;;;;;;;5083361;28;20095;-84
2022/03/29 04:33:01;;;;;;;12.27;7.90;;;;;;;;;;5079902;28;20097;-85
2022/03/29 04:35:27;;;;;;;14.85;7.70;;;;;;;;;;5089437;28;20073;-87
2022/03/29 04:37:53;;;;;;;9.98;7.22;;;;;;;;;;5072093;28;20422;-85
2022/03/29 04:40:20;;;;;;;10.00;8.30;;;;;;;;;;5074631;28;20052;-85
2022/03/29 04:42:47;;;;;;;13.90;7.70;;;;;;;;;;5075091;28;20043;-83
2022/03/29 04:45:14;;;;;;;10.68;8.00;;;;;;;;;;5074216;28;20020;-85
2022/03/29 04:47:40;;;;;;;11.18;6.95;;;;;;;;;;5068762;28;20021;-84
2022/03/29 04:50:07;;;;;;;10.70;7.68;;;;;;;;;;5071089;28;20048;-85
2022/03/29 04:52:33;;;;;;;10.32;6.95;;;;;;;;;;5090456;28;20058;-84
2022/03/29 04:54:58;;;;;;;14.05;7.25;;;;;;;;;;5079631;28;20483;-85
2022/03/29 04:57:24;;;;;;;14.93;7.55;;;;;;;;;;5082091;28;20042;-83
2022/03/29 04:59:49;;;;;;;10.75;6.85;;;;;;;;;;5089195;28;20025;-84
2022/03/29 05:02:15;;;;;;;11.30;7.43;;;;;;;;;;5078759;28;20373;-84
2022/03/29 05:04:40;;;;;;;13.55;7.68;;;;;;;;;;5083659;28;20107;-85
2022/03/29 05:07:06;;;;;;;10.30;7.72;;;;;;;;;;5077157;28;20022;-84
2022/03/29 05:09:31;;;;;;;11.15;7.68;;;;;;;;;;5075376;28;20024;-86
2022/03/29 05:11:59;;;;;;;12.05;8.30;;;;;;;;;;5081795;28;20097;-85
2022/03/29 05:14:25;;;;;;;19.08;9.80;;;;;;;;;;5079529;28;20103;-85
2022/03/29 05:16:50;;;;;;;12.35;7.43;;;;;;;;;;5081397;28;20059;-85
2022/03/29 05:19:16;;;;;;;12.40;8.00;;;;;;;;;;5080213;28;20518;-84
2022/03/29 05:21:42;;;;;;;16.63;8.50;;;;;;;;;;5083623;28;20111;-84
2022/03/29 05:24:08;;;;;;;11.35;7.68;;;;;;;;;;5081202;28;20042;-85
2022/03/29 05:26:34;;;;;;;16.75;8.77;;;;;;;;;;5083587;28;20028;-85
2022/03/29 05:28:59;;;;;;;14.18;8.65;;;;;;;;;;5080427;28;20024;-85
2022/03/29 05:31:25;;;;;;;10.65;8.10;;;;;;;;;;5083527;28;20028;-85
2022/03/29 05:33:50;;;;;;;14.13;8.55;;;;;;;;;;5079391;28;20040;-85
2022/03/29 05:36:16;;;;;;;14.50;9.50;;;;;;;;;;5079192;28;20028;-84
2022/03/29 05:38:48;;;;;;;18.98;10.25;;;;;;;;;;5083187;28;20035;-83
2022/03/29 05:41:15;;;;;;;23.67;11.35;;;;;;;;;;5076056;28;20625;-83
2022/03/29 05:43:41;;;;;;;17.00;10.10;;;;;;;;;;5083237;28;20384;-84
2022/03/29 05:48:55;;;;;;;21.42;12.00;;;;;;;;;;5080315;28;20088;-83
2022/03/29 05:51:24;;;;;;;30.35;13.80;;;;;;;;;;5078760;28;20035;-84
2022/03/29 05:53:51;;;;;;;52.28;23.90;;;;;;;;;;5080686;28;20035;-86
2022/03/29 05:56:17;;;;;;;33.20;16.63;;;;;;;;;;5079305;28;20020;-83
2022/03/29 05:58:43;;;;;;;23.48;13.98;;;;;;;;;;5083277;28;20052;-84
2022/03/29 06:01:08;;;;;;;18.88;11.82;;;;;;;;;;5081119;28;20121;-86
2022/03/29 06:03:34;;;;;;;20.70;12.20;;;;;;;;;;5083548;28;20099;-85
2022/03/29 06:05:59;;;;;;;48.78;22.33;;;;;;;;;;5077656;28;20388;-84
2022/03/29 06:08:25;;;;;;;43.05;19.73;;;;;;;;;;5072040;28;20043;-82
2022/03/29 06:10:50;;;;;;;42.50;19.45;;;;;;;;;;5078712;28;20032;-82
2022/03/29 06:13:16;;;;;;;33.47;17.33;;;;;;;;;;5081198;28;20020;-82
2022/03/29 06:15:41;;;;;;;28.85;16.05;;;;;;;;;;5080218;28;20028;-83
2022/03/29 06:18:07;;;;;;;18.17;11.95;;;;;;;;;;5080710;28;20047;-82
2022/03/29 06:20:33;;;;;;;18.83;11.30;;;;;;;;;;5077549;28;20094;-83
2022/03/29 06:22:58;;;;;;;17.50;11.82;;;;;;;;;;5074786;28;20027;-82
2022/03/29 06:25:24;;;;;;;16.48;10.25;;;;;;;;;;5082384;28;20027;-82
2022/03/29 06:27:49;;;;;;;27.70;14.20;;;;;;;;;;5083771;28;20032;-82
2022/03/29 06:30:16;;;;;;;16.52;10.75;;;;;;;;;;5076890;28;20103;-83
2022/03/29 06:32:49;;;;;;;27.08;15.35;;;;;;;;;;5079611;28;20035;-83
2022/03/29 06:35:17;;;;;;;43.05;21.17;;;;;;;;;;5085937;28;20099;-83
2022/03/29 06:37:43;;;;;;;28.63;13.63;;;;;;;;;;5085324;28;20028;-83
2022/03/29 06:40:09;;;;;;;18.40;11.77;;;;;;;;;;5080550;28;20504;-84
2022/03/29 06:42:36;;;;;;;21.17;10.80;;;;;;;;;;5076021;28;20111;-83
2022/03/29 06:45:02;;;;;;;23.17;11.50;;;;;;;;;;5081107;28;20032;-84
2022/03/29 06:47:28;;;;;;;17.55;11.98;;;;;;;;;;5083087;28;20034;-84
2022/03/29 06:49:53;;;;;;;18.30;11.82;;;;;;;;;;5081512;28;20024;-84
2022/03/29 06:52:19;;;;;;;16.35;10.75;;;;;;;;;;5087033;28;20077;-83
2022/03/29 06:54:44;;;;;;;19.95;10.82;;;;;;;;;;5081795;28;20037;-82
2022/03/29 06:57:10;;;;;;;21.15;10.57;;;;;;;;;;5083928;28;20437;-83
2022/03/29 06:59:35;;;;;;;19.63;11.57;;;;;;;;;;5086968;28;20035;-85
2022/03/29 07:02:01;;;;;;;47.83;26.90;;;;;;;;;;5081386;28;20021;-83
2022/03/29 07:04:26;;;;;;;23.08;14.77;;;;;;;;;;5080753;28;20028;-80
2022/03/29 07:06:52;;;;;;;45.47;22.33;;;;;;;;;;5081349;28;20036;-84
2022/03/29 07:12:01;;;;;;;17.42;10.35;;;;;;;;;;5080547;28;20039;-83
2022/03/29 07:14:27;;;;;;;17.35;11.38;;;;;;;;;;5081996;28;20017;-84
2022/03/29 07:16:52;;;;;;;15.35;10.82;;;;;;;;;;5080551;28;20028;-84
2022/03/29 07:19:18;;;;;;;19.75;10.95;;;;;;;;;;5077663;28;20469;-84
2022/03/29 07:21:44;;;;;;;16.58;10.50;;;;;;;;;;5078769;28;20024;-85
2022/03/29 07:24:11;;;;;;;15.98;10.63;;;;;;;;;;5079420;28;20365;-83
2022/03/29 07:26:37;;;;;;;20.17;11.07;;;;;;;;;;5080993;28;20028;-80
2022/03/29 07:29:04;;;;;;;15.63;10.23;;;;;;;;;;5078587;28;20172;-81
2022/03/29 07:31:31;;;;;;;18.60;10.88;;;;;;;;;;5080479;28;20024;-80
2022/03/29 07:33:56;;;;;;;28.27;17.85;;;;;;;;;;5079871;28;20037;-81
2022/03/29 07:36:22;;;;;;;17.23;9.90;;;;;;;;;;5082621;28;20082;-84
2022/03/29 07:38:48;;;;;;;19.48;10.93;;;;;;;;;;5079972;28;20031;-83
2022/03/29 07:41:13;;;;;;;24.38;9.88;;;;;;;;;;5080022;28;20076;-82
2022/03/29 07:43:39;;;;;;;30.95;14.43;;;;;;;;;;5084057;28;20016;-84
2022/03/29 07:46:04;;;;;;;30.20;15.82;;;;;;;;;;5076013;28;20024;-83
2022/03/29 07:48:30;;;;;;;21.85;12.48;;;;;;;;;;5075674;28;20024;-80
2022/03/29 07:50:55;;;;;;;22.38;11.70;;;;;;;;;;5078351;28;20039;-82
2022/03/29 07:53:24;;;;;;;24.63;12.57;;;;;;;;;;5073768;28;20028;-82
2022/03/29 07:55:50;;;;;;;27.50;14.87;;;;;;;;;;5075431;28;20077;-82
2022/03/29 07:58:17;;;;;;;32.33;18.13;;;;;;;;;;5084270;28;20272;-86
2022/03/29 08:00:42;;;;;;;26.55;13.23;;;;;;;;;;5088496;28;20030;-85
2022/03/29 08:03:10;;;;;;;14.48;11.18;;;;;;;;;;5082209;28;20789;-84
2022/03/29 08:05:37;;;;;;;18.88;12.32;;;;;;;;;;5085121;28;20055;-82
2022/03/29 08:08:03;;;;;;;26.73;15.38;;;;;;;;;;5074137;28;20063;-84
2022/03/29 08:10:31;;;;;;;29.80;16.25;;;;;;;;;;5077792;28;20380;-83
2022/03/29 08:12:58;;;;;;;32.38;16.40;;;;;;;;;;5084362;28;20039;-83
2022/03/29 08:15:24;;;;;;;19.23;11.68;;;;;;;;;;5079325;28;20032;-84
2022/03/29 08:17:50;;;;;;;21.02;11.55;;;;;;;;;;5082436;28;20024;-84
2022/03/29 08:20:17;;;;;;;22.80;10.80;;;;;;;;;;5080313;28;20153;-82
2022/03/29 08:22:44;;;;;;;33.55;15.95;;;;;;;;;;5087425;28;20021;-85
2022/03/29 08:25:15;;;;;;;20.38;12.10;;;;;;;;;;5075465;28;20075;-84
2022/03/29 08:27:41;;;;;;;18.38;11.35;;;;;;;;;;5079705;28;20097;-83
2022/03/29 08:30:08;;;;;;;16.30;10.40;;;;;;;;;;5076766;28;20035;-84
2022/03/29 08:32:35;;;;;;;18.67;10.43;;;;;;;;;;5075274;28;20400;-84
2022/03/29 08:35:01;;;;;;;14.85;9.88;;;;;;;;;;5073678;28;20468;-83
2022/03/29 08:37:27;;;;;;;13.50;9.20;;;;;;;;;;5082610;28;20021;-82
2022/03/29 08:39:52;;;;;;;15.52;7.07;;;;;;;;;;5087350;28;20071;-83
2022/03/29 08:42:18;;;;;;;12.82;7.35;;;;;;;;;;5079575;28;20081;-82
2022/03/29 08:44:44;;;;;;;13.98;8.88;;;;;;;;;;5078827;28;20028;-83
2022/03/29 08:47:11;;;;;;;13.68;7.60;;;;;;;;;;5078391;28;20078;-83
2022/03/29 08:49:37;;;;;;;13.05;7.15;;;;;;;;;;5075305;28;20036;-84
2022/03/29 08:52:04;;;;;;;17.73;8.65;;;;;;;;;;5079154;28;20028;-82
2022/03/29 08:54:30;;;;;;;21.48;8.43;;;;;;;;;;5084041;28;20028;-84
2022/03/29 08:56:56;;;;;;;16.75;6.95;;;;;;;;;;5079940;28;20047;-81
2022/03/29 08:59:21;;;;;;;16.77;9.25;;;;;;;;;;5073304;28;20029;-82
2022/03/29 09:01:47;;;;;;;12.35;6.40;;;;;;;;;;5077566;28;20368;-83
2022/03/29 09:04:15;;;;;;;14.63;7.00;;;;;;;;;;5072299;28;20496;-82
2022/03/29 09:07:07;;;;;;;10.60;7.80;;;;;;;;;;5074842;28;20043;-84
2022/03/29 09:09:44;;;;;;;15.70;7.57;;;;;;;;;;5078156;28;20131;-83
2022/03/29 09:12:18;;;;;;;13.65;7.93;;;;;;;;;;5082817;28;20028;-84
2022/03/29 09:14:54;;;;;;;14.90;7.93;;;;;;;;;;5081341;28;20032;-85
2022/03/29 09:17:40;;;;;;;14.70;7.53;;;;;;;;;;5078970;28;20529;-84
2022/03/29 09:20:23;;;;;;;13.38;8.13;;;;;;;;;;5078493;28;20028;-84
2022/03/29 09:22:51;;;;;;;9.80;6.95;;;;;;;;;;5082739;28;20036;-84
2022/03/29 09:25:34;;;;;;;14.82;8.65;;;;;;;;;;5071882;28;20059;-83
2022/03/29 09:28:03;;;;;;;13.68;7.55;;;;;;;;;;5076287;28;20728;-83
2022/03/29 09:30:41;;;;;;;14.98;6.88;;;;;;;;;;5072929;28;20025;-83
2022/03/29 09:33:15;;;;;;;13.32;7.90;;;;;;;;;;5072328;28;20032;-83
2022/03/29 09:36:10;;;;;;;13.75;7.50;;;;;;;;;;5078717;28;20027;-85
2022/03/29 09:38:44;;;;;;;15.75;8.02;;;;;;;;;;5076700;28;20053;-84
2022/03/29 09:41:32;;;;;;;17.40;6.70;;;;;;;;;;5077068;28;20039;-85
2022/03/29 09:44:19;;;;;;;13.77;7.97;;;;;;;;;;5077917;28;20031;-85
2022/03/29 09:47:01;;;;;;;12.43;7.43;;;;;;;;;;5079142;28;20050;-85
2022/03/29 09:49:27;;;;;;;14.40;7.53;;;;;;;;;;5072788;28;20029;-82
2022/03/29 09:52:15;;;;;;;12.27;6.93;;;;;;;;;;5070379;28;20028;-86
2022/03/29 09:54:42;;;;;;;14.30;6.90;;;;;;;;;;5078253;28;20028;-85
2022/03/29 09:57:09;;;;;;;10.82;6.63;;;;;;;;;;5068959;28;20389;-83
2022/03/29 09:59:52;;;;;;;10.82;7.05;;;;;;;;;;5075944;28;20031;-85
2022/03/29 10:02:18;;;;;;;12.05;7.40;;;;;;;;;;5081346;28;20040;-83
2022/03/29 10:04:44;;;;;;;13.07;7.95;;;;;;;;;;5075608;28;20399;-84
2022/03/29 10:07:11;;;;;;;14.60;7.38;;;;;;;;;;5072943;28;20476;-84
2022/03/29 10:09:42;;;;;;;12.65;6.13;;;;;;;;;;5073752;28;20028;-84
2022/03/29 10:12:09;;;;;;;13.05;6.53;;;;;;;;;;5074816;28;20029;-84
2022/03/29 10:14:42;;;;;;;21.30;7.57;;;;;;;;;;5074375;28;20032;-85
2022/03/29 10:17:08;;;;;;;14.70;6.55;;;;;;;;;;5084710;28;20033;-86
2022/03/29 10:19:38;;;;;;;11.18;6.40;;;;;;;;;;5077249;28;20032;-84
2022/03/29 10:22:05;;;;;;;11.93;6.50;;;;;;;;;;5082102;28;20032;-86
2022/03/29 10:24:31;;;;;;;15.13;7.35;;;;;;;;;;5075122;28;20077;-85
2022/03/29 10:26:59;;;;;;;13.80;7.28;;;;;;;;;;5080447;28;20024;-84
2022/03/29 10:29:26;;;;;;;14.98;7.57;;;;;;;;;;5080456;28;20032;-83
2022/03/29 10:32:05;;;;;;;21.20;6.55;;;;;;;;;;5078172;28;20028;-84
2022/03/29 10:34:37;;;;;;;15.65;7.13;;;;;;;;;;5076412;28;20025;-85
2022/03/29 10:37:14;;;;;;;12.82;6.53;;;;;;;;;;5077529;28;20025;-83
2022/03/29 10:39:48;;;;;;;10.88;7.13;;;;;;;;;;5072772;28;20033;-83
2022/03/29 10:42:40;;;;;;;17.27;7.03;;;;;;;;;;5073483;28;20805;-86
2022/03/29 10:45:16;;;;;;;13.40;5.15;;;;;;;;;;5079567;28;20133;-83
2022/03/29 10:47:48;;;;;;;11.10;7.20;;;;;;;;;;5072047;28;20024;-82
2022/03/29 10:50:16;;;;;;;14.93;7.03;;;;;;;;;;5077227;28;20036;-83
2022/03/29 10:52:49;;;;;;;15.45;5.07;;;;;;;;;;5081196;28;20423;-83
2022/03/29 10:55:21;;;;;;;19.98;6.88;;;;;;;;;;5079963;28;20157;-84
2022/03/29 10:58:12;;;;;;;19.40;5.80;;;;;;;;;;5082183;28;20025;-83
2022/03/29 11:00:43;;;;;;;9.50;4.70;;;;;;;;;;5069494;28;20536;-83
2022/03/29 11:03:16;;;;;;;17.02;5.50;;;;;;;;;;5076815;28;20024;-84
2022/03/29 11:06:03;;;;;;;13.02;4.78;;;;;;;;;;5096010;28;20708;-83
2022/03/29 11:08:30;;;;;;;8.98;5.07;;;;;;;;;;5079393;28;20433;-81
2022/03/29 11:10:58;;;;;;;8.93;4.68;;;;;;;;;;5077149;28;20055;-82
2022/03/29 11:13:28;;;;;;;11.55;6.20;;;;;;;;;;5070050;28;20020;-83
2022/03/29 11:15:57;;;;;;;17.08;5.65;;;;;;;;;;5068845;28;20472;-85
2022/03/29 11:18:32;;;;;;;7.00;5.25;;;;;;;;;;5076332;28;20020;-82
2022/03/29 11:21:02;;;;;;;15.60;6.25;;;;;;;;;;5085138;28;20055;-84
2022/03/29 11:23:39;;;;;;;11.93;5.43;;;;;;;;;;5078910;28;20071;-83
2022/03/29 11:26:08;;;;;;;11.75;5.70;;;;;;;;;;5070674;28;20020;-84
2022/03/29 11:28:34;;;;;;;18.33;5.90;;;;;;;;;;5080497;28;20023;-84
2022/03/29 11:30:59;;;;;;;7.60;4.78;;;;;;;;;;5073576;28;20020;-82
2022/03/29 11:33:33;;;;;;;11.70;5.88;;;;;;;;;;5076957;28;20024;-84
2022/03/29 11:36:00;;;;;;;13.95;5.60;;;;;;;;;;5079646;28;20028;-84
2022/03/29 11:38:26;;;;;;;14.07;5.65;;;;;;;;;;5076666;28;20024;-84
2022/03/29 11:40:51;;;;;;;9.70;5.80;;;;;;;;;;5078925;28;20518;-83
2022/03/29 11:43:23;;;;;;;11.23;5.28;;;;;;;;;;5085437;28;20030;-86
2022/03/29 11:45:48;;;;;;;16.52;6.18;;;;;;;;;;5086307;28;20487;-84
2022/03/29 11:48:18;;;;;;;13.13;5.50;;;;;;;;;;5079862;28;20032;-82
2022/03/29 11:50:52;;;;;;;10.45;5.32;;;;;;;;;;5069821;28;20035;-84
2022/03/29 11:53:29;;;;;;;14.75;5.95;;;;;;;;;;5072464;28;20095;-84
2022/03/29 11:56:14;;;;;;;9.35;5.03;;;;;;;;;;5076542;28;20048;-84
2022/03/29 11:58:45;;;;;;;9.63;5.47;;;;;;;;;;5071915;28;20035;-82
2022/03/29 12:01:15;;;;;;;9.57;4.78;;;;;;;;;;5077696;28;20029;-83
2022/03/29 12:03:43;;;;;;;14.27;6.13;;;;;;;;;;5076832;28;20039;-84
2022/03/29 12:06:14;;;;;;;17.90;6.70;;;;;;;;;;5078450;28;20109;-85
2022/03/29 12:08:57;;;;;;;13.20;7.10;;;;;;;;;;5078702;28;21385;-82
2022/03/29 12:11:35;;;;;;;9.93;6.30;;;;;;;;;;5072255;28;20429;-85
2022/03/29 12:14:05;;;;;;;9.10;5.18;;;;;;;;;;5076550;28;20029;-85
2022/03/29 12:16:32;;;;;;;;;;;;;;;;;;5079909;28;20027;-85
2022/03/29 12:18:57;;;;;;;10.75;6.30;;;;;;;;;;5077243;28;20021;-83
2022/03/29 12:21:24;;;;;;;8.07;5.30;;;;;;;;;;5082446;28;20107;-83
2022/03/29 12:24:06;;;;;;;11.70;4.95;;;;;;;;;;5084227;28;20029;-84
2022/03/29 12:26:32;;;;;;;11.35;6.60;;;;;;;;;;5084267;28;20103;-85
2022/03/29 12:28:59;;;;;;;8.50;5.15;;;;;;;;;;5076514;28;20024;-86
2022/03/29 12:31:27;;;;;;;9.65;5.93;;;;;;;;;;5074847;28;20099;-84
2022/03/29 12:33:54;;;;;;;8.80;5.07;;;;;;;;;;5077628;28;20050;-85
2022/03/29 12:36:19;;;;;;;13.40;5.22;;;;;;;;;;5086124;28;20098;-83
2022/03/29 12:38:51;;;;;;;11.98;5.68;;;;;;;;;;5078913;28;20550;-84
2022/03/29 12:41:38;;;;;;;10.80;5.03;;;;;;;;;;5073640;28;20374;-87
2022/03/29 12:44:10;;;;;;;26.38;7.32;;;;;;;;;;5077694;28;20111;-85
2022/03/29 12:46:37;;;;;;;14.45;5.45;;;;;;;;;;5079693;28;20095;-84
2022/03/29 12:49:03;;;;;;;13.40;5.35;;;;;;;;;;5084166;28;20027;-83
2022/03/29 12:51:34;;;;;;;8.43;5.05;;;;;;;;;;5081324;28;20023;-85
2022/03/29 12:54:05;;;;;;;14.73;6.10;;;;;;;;;;5070576;28;20039;-85
2022/03/29 12:56:34;;;;;;;14.85;5.20;;;;;;;;;;5070367;28;20488;-84
2022/03/29 12:59:37;;;;;;;11.83;7.67;;;;;;;;;;5074267;28;20111;-86
2022/03/29 13:02:12;;;;;;;11.25;6.70;;;;;;;;;;5077025;28;20085;-85
2022/03/29 13:04:52;;;;;;;7.38;4.30;;;;;;;;;;5082375;28;20365;-82
2022/03/29 13:07:43;;;;;;;8.45;5.38;;;;;;;;;;5062604;28;20035;-85
2022/03/29 13:10:21;;;;;;;10.07;4.93;;;;;;;;;;5076064;28;20028;-84
2022/03/29 13:13:03;;;;;;;13.32;6.80;;;;;;;;;;5081419;28;20566;-83
2022/03/29 13:15:36;;;;;;;14.85;5.32;;;;;;;;;;5082268;28;20055;-82
2022/03/29 13:18:17;;;;;;;7.50;4.78;;;;;;;;;;5076670;28;20039;-85
2022/03/29 13:20:42;;;;;;;9.95;4.60;;;;;;;;;;5074968;28;20044;-82
2022/03/29 13:23:08;;;;;;;9.43;4.75;;;;;;;;;;5073571;28;20760;-84
2022/03/29 13:25:35;;;;;;;12.73;5.38;;;;;;;;;;5080306;28;20023;-84
2022/03/29 13:28:01;;;;;;;7.40;4.72;;;;;;;;;;5065580;28;20032;-84
2022/03/29 13:30:26;;;;;;;10.57;4.97;;;;;;;;;;5069821;28;20039;-83
2022/03/29 13:32:52;;;;;;;6.32;4.43;;;;;;;;;;5073469;28;20388;-87
2022/03/29 13:35:21;;;;;;;11.13;5.30;;;;;;;;;;5071142;28;20484;-84
2022/03/29 13:37:47;;;;;;;7.10;4.25;;;;;;;;;;5071055;28;20089;-83
2022/03/29 13:40:13;;;;;;;11.07;4.93;;;;;;;;;;5082702;28;20119;-86
2022/03/29 13:42:38;;;;;;;13.80;6.07;;;;;;;;;;5082424;28;20051;-83
2022/03/29 13:45:04;;;;;;;16.15;9.60;;;;;;;;;;5075429;28;20024;-85
2022/03/29 13:47:30;;;;;;;8.13;4.53;;;;;;;;;;5071211;28;20032;-84
2022/03/29 13:49:55;;;;;;;8.88;5.70;;;;;;;;;;5066746;28;20032;-83
2022/03/29 13:52:22;;;;;;;11.68;5.18;;;;;;;;;;5074139;28;20579;-83
2022/03/29 13:54:47;;;;;;;11.70;5.10;;;;;;;;;;5075866;28;20539;-84
2022/03/29 13:57:13;;;;;;;8.00;5.22;;;;;;;;;;5065345;28;20127;-84
2022/03/29 13:59:39;;;;;;;9.38;4.95;;;;;;;;;;5073464;28;20380;-83
2022/03/29 14:02:05;;;;;;;10.70;4.93;;;;;;;;;;5075968;28;20377;-85
2022/03/29 14:04:31;;;;;;;7.68;4.85;;;;;;;;;;5081363;28;20024;-84
2022/03/29 14:07:00;;;;;;;12.68;4.88;;;;;;;;;;5075717;28;20039;-84
2022/03/29 14:09:26;;;;;;;11.27;5.13;;;;;;;;;;5078157;28;20024;-83
2022/03/29 14:11:52;;;;;;;13.70;5.72;;;;;;;;;;5082752;28;20142;-84
2022/03/29 14:14:17;;;;;;;11.27;5.57;;;;;;;;;;5083882;28;20028;-82
2022/03/29 14:16:43;;;;;;;10.95;5.45;;;;;;;;;;5074577;28;20021;-83
2022/03/29 14:19:10;;;;;;;10.63;6.70;;;;;;;;;;5074170;28;20041;-83
2022/03/29 14:21:36;;;;;;;9.18;5.78;;;;;;;;;;5072180;28;20059;-82
2022/03/29 14:24:02;;;;;;;12.65;5.80;;;;;;;;;;5076968;28;20077;-83
2022/03/29 14:26:27;;;;;;;12.15;5.65;;;;;;;;;;5071817;28;20032;-83
2022/03/29 14:28:53;;;;;;;12.35;5.75;;;;;;;;;;5069200;28;20045;-86
2022/03/29 14:31:18;;;;;;;8.80;5.28;;;;;;;;;;5106696;28;20039;-85
2022/03/29 14:33:45;;;;;;;11.77;5.90;;;;;;;;;;5086765;28;20021;-84
2022/03/29 14:36:10;;;;;;;15.55;7.20;;;;;;;;;;5082353;28;20113;-84
2022/03/29 14:38:36;;;;;;;18.10;6.63;;;;;;;;;;5076642;28;20145;-84
2022/03/29 14:41:02;;;;;;;12.48;5.78;;;;;;;;;;5075945;28;20067;-83
2022/03/29 14:43:28;;;;;;;9.77;5.50;;;;;;;;;;5070238;28;20036;-84